Time;durP1;ratioP1;P1;durP2;ratioP2;P2;SDS_P1;SDS_P2;PMS_P1;PMS_P2;Temp;Humidity;BMP_temperature;BMP_pressure;BME280_temperature;BME280_humidity;BME280_pressure;Samples;Min_cycle;Max_cycle;Signal;HPM_P1;HPM_P2
2023/06/22 00:00:17;;;;;;;;;;;;;;;21.41;49.15;101273.00;7343866;19;19938;-61
2023/06/22 00:02:42;;;;;;;;;;;;;;;21.38;49.65;101272.31;7347419;19;19971;-61
2023/06/22 00:05:07;;;;;;;;;;;;;;;21.33;49.53;101269.94;7347545;19;19931;-61
2023/06/22 00:07:32;;;;;;;;;;;;;;;21.29;49.37;101267.50;7346499;19;20483;-61
2023/06/22 00:09:58;;;;;;;;;;;;;;;21.23;49.68;101269.59;7345902;19;20713;-61
2023/06/22 00:12:23;;;;;;;;;;;;;;;21.19;49.43;101277.84;7347255;19;19929;-61
2023/06/22 00:14:48;;;;;;;;;;;;;;;21.14;49.56;101274.59;7347777;19;19923;-62
2023/06/22 00:17:13;;;;;;;;;;;;;;;21.09;49.42;101271.34;7343793;19;19926;-62
2023/06/22 00:19:40;;;;;;;;;;;;;;;21.02;49.40;101280.59;7347457;19;19922;-61
2023/06/22 00:22:05;;;;;;;;;;;;;;;20.97;49.80;101289.69;7342587;19;19914;-62
2023/06/22 00:24:30;;;;;;;;;;;;;;;20.93;49.64;101288.16;7350694;19;19919;-61
2023/06/22 00:26:56;;;;;;;;;;;;;;;20.88;49.68;101284.03;7341781;19;20380;-62
2023/06/22 00:29:21;;;;;;;;;;;;;;;20.84;50.13;101278.06;7347327;19;19930;-61
2023/06/22 00:31:46;;;;;;;;;;;;;;;20.79;49.89;101285.44;7346556;19;19930;-62
2023/06/22 00:34:11;;;;;;;;;;;;;;;20.75;50.26;101286.53;7347870;19;19926;-62
2023/06/22 00:36:37;;;;;;;;;;;;;;;20.65;50.08;101280.03;7348425;19;20641;-62
2023/06/22 00:39:03;;;;;;;;;;;;;;;20.67;50.40;101283.44;7347140;19;19931;-62
2023/06/22 00:41:28;;;;;;;;;;;;;;;20.63;50.33;101289.84;7342479;19;19962;-61
2023/06/22 00:43:53;;;;;;;;;;;;;;;20.59;50.51;101288.34;7345407;19;19915;-62
2023/06/22 00:46:19;;;;;;;;;;;;;;;20.55;50.12;101292.09;7347796;19;19922;-61
2023/06/22 00:48:44;;;;;;;;;;;;;;;20.51;50.07;101298.50;7344555;19;19919;-61
2023/06/22 00:51:10;;;;;;;;;;;;;;;20.46;50.64;101302.25;7346757;19;20672;-62
2023/06/22 00:53:36;;;;;;;;;;;;;;;20.43;50.18;101310.38;7342334;19;19926;-61
2023/06/22 00:56:03;;;;;;;;;;;;;;;20.38;50.43;101301.78;7345919;19;19929;-61
2023/06/22 00:58:28;;;;;;;;;;;;;;;20.34;50.35;101305.56;7347569;19;20030;-61
2023/06/22 01:00:54;;;;;;;;;;;;;;;20.31;50.74;101305.69;7345727;19;20362;-61
2023/06/22 01:03:20;;;;;;;;;;;;;;;20.23;50.31;101307.94;7343219;19;19919;-61
2023/06/22 01:05:46;;;;;;;;;;;;;;;20.19;50.78;101306.38;7347720;19;19930;-61
2023/06/22 01:08:11;;;;;;;;;;;;;;;20.14;50.51;101311.06;7342964;19;19946;-61
2023/06/22 01:10:52;;;;;;;;;;;;;;;20.09;50.70;101315.75;7342590;19;19944;-61
2023/06/22 01:13:26;;;;;;;;;;;;;;;20.03;50.49;101321.38;7343590;19;19915;-61
2023/06/22 01:16:10;;;;;;;;;;;;;;;19.98;50.72;101323.41;7342623;19;19926;-61
2023/06/22 01:18:36;;;;;;;;;;;;;;;19.91;51.11;101325.50;7346934;19;20320;-61
2023/06/22 01:21:07;;;;;;;;;;;;;;;19.86;51.07;101320.44;7341066;19;20026;-62
2023/06/22 01:23:41;;;;;;;;;;;;;;;19.81;50.90;101319.81;7350399;19;19948;-62
2023/06/22 01:26:22;;;;;;;;;;;;;;;19.76;50.77;101326.28;7349618;19;20537;-61
2023/06/22 01:28:52;;;;;;;;;;;;;;;19.70;51.20;101330.13;7351364;19;20159;-61
2023/06/22 01:31:19;;;;;;;;;;;;;;;19.64;51.02;101328.63;7352581;19;19925;-61
2023/06/22 01:33:46;;;;;;;;;;;;;;;19.60;50.98;101326.22;7349923;19;20505;-61
2023/06/22 01:36:13;;;;;;;;;;;;;;;19.55;51.21;101330.84;7352575;19;19911;-61
2023/06/22 01:38:38;;;;;;;;;;;;;;;19.51;50.76;101331.94;7352392;19;19931;-61
2023/06/22 01:41:04;;;;;;;;;;;;;;;19.45;50.89;101330.44;7346459;19;20370;-61
2023/06/22 01:43:30;;;;;;;;;;;;;;;19.39;51.06;101331.63;7348762;19;20548;-61
2023/06/22 01:45:55;;;;;;;;;;;;;;;19.35;51.09;101335.34;7349353;19;20749;-61
2023/06/22 01:48:21;;;;;;;;;;;;;;;19.30;51.08;101340.00;7352725;19;19927;-61
2023/06/22 01:50:47;;;;;;;;;;;;;;;19.26;51.22;101340.22;7351748;19;19919;-61
2023/06/22 01:53:12;;;;;;;;;;;;;;;19.21;51.58;101337.84;7349866;19;19919;-61
2023/06/22 01:55:37;;;;;;;;;;;;;;;19.17;51.54;101338.91;7351101;19;19919;-61
2023/06/22 01:58:03;;;;;;;;;;;;;;;19.13;51.64;101339.97;7345711;19;20753;-62
2023/06/22 02:00:31;;;;;;;;;;;;;;;19.09;51.75;101343.69;7354292;19;20455;-62
2023/06/22 02:02:59;;;;;;;;;;;;;;;19.05;51.79;101350.06;7352475;19;20233;-61
2023/06/22 02:05:26;;;;;;;;;;;;;;;19.01;51.57;101344.09;7354461;19;19937;-62
2023/06/22 02:08:07;;;;;;;;;;;;;;;18.97;51.84;101339.00;7351042;19;19940;-62
2023/06/22 02:10:34;;;;;;;;;;;;;;;18.92;51.45;101348.00;7354246;19;20267;-61
2023/06/22 02:13:00;;;;;;;;;;;;;;;18.88;51.85;101351.72;7349348;19;20026;-62
2023/06/22 02:15:25;;;;;;;;;;;;;;;18.85;51.93;101356.31;7351907;19;19918;-61
2023/06/22 02:17:50;;;;;;;;;;;;;;;18.81;51.61;101354.75;7349434;19;20710;-62
2023/06/22 02:20:16;;;;;;;;;;;;;;;18.78;51.96;101354.88;7352287;19;19923;-61
2023/06/22 02:22:41;;;;;;;;;;;;;;;18.73;51.78;101352.44;7353710;19;20583;-62
2023/06/22 02:25:07;;;;;;;;;;;;;;;18.70;51.65;101357.88;7355194;19;19927;-61
2023/06/22 02:27:32;;;;;;;;;;;;;;;18.66;51.89;101356.28;7345471;19;19915;-62
2023/06/22 02:29:57;;;;;;;;;;;;;;;18.62;51.96;101360.00;7350388;19;19944;-61
2023/06/22 02:32:23;;;;;;;;;;;;;;;18.59;51.90;101354.81;7346678;19;20239;-61
2023/06/22 02:34:48;;;;;;;;;;;;;;;18.55;52.18;101358.53;7352762;19;19931;-61
2023/06/22 02:37:16;;;;;;;;;;;;;;;18.52;52.17;101358.69;7351436;19;19994;-61
2023/06/22 02:39:42;;;;;;;;;;;;;;;18.49;52.02;101353.53;7345758;19;19919;-61
2023/06/22 02:42:07;;;;;;;;;;;;;;;18.48;52.07;101362.41;7353663;19;19926;-61
2023/06/22 02:44:33;;;;;;;;;;;;;;;18.47;52.39;101371.25;7350651;19;19919;-61
2023/06/22 02:46:58;;;;;;;;;;;;;;;18.47;52.83;101371.25;7353009;19;20434;-61
2023/06/22 02:49:23;;;;;;;;;;;;;;;18.47;52.90;101361.53;7349572;19;20266;-61
2023/06/22 02:51:49;;;;;;;;;;;;;;;18.49;52.65;101369.41;7348045;19;19945;-61
2023/06/22 02:54:14;;;;;;;;;;;;;;;18.52;52.96;101358.69;7352713;19;20670;-61
2023/06/22 02:56:40;;;;;;;;;;;;;;;18.54;52.80;101373.56;7351687;19;19923;-61
2023/06/22 02:59:05;;;;;;;;;;;;;;;18.55;52.78;101369.13;7350598;19;19923;-61
2023/06/22 03:01:37;;;;;;;;;;;;;;;18.59;53.30;101381.28;7352387;19;20927;-61
2023/06/22 03:04:03;;;;;;;;;;;;;;;18.61;53.08;101376.81;7351583;19;19934;-62
2023/06/22 03:06:28;;;;;;;;;;;;;;;18.65;53.00;101378.34;7343793;19;19914;-62
2023/06/22 03:08:59;;;;;;;;;;;;;;;18.68;53.26;101375.59;7348263;19;19939;-61
2023/06/22 03:11:24;;;;;;;;;;;;;;;18.72;53.17;101377.19;7349883;19;19992;-62
2023/06/22 03:13:52;;;;;;;;;;;;;;;18.76;53.43;101373.47;7351703;19;19918;-61
2023/06/22 03:16:17;;;;;;;;;;;;;;;18.79;53.31;101372.47;7347694;19;19918;-61
2023/06/22 03:18:42;;;;;;;;;;;;;;;18.82;53.58;101383.78;7330915;19;19943;-61
2023/06/22 03:21:07;;;;;;;;;;;;;;;18.85;53.61;101388.91;7349087;19;19922;-62
2023/06/22 03:23:33;;;;;;;;;;;;;;;18.88;53.48;101382.63;7350600;19;19922;-61
2023/06/22 03:25:58;;;;;;;;;;;;;;;18.92;53.48;101389.50;7357197;19;19997;-61
2023/06/22 03:28:23;;;;;;;;;;;;;;;18.34;53.19;101271.31;7355048;19;19922;-61
2023/06/22 03:30:48;;;;;;;;;;;;;;;18.98;53.17;101383.06;7346995;19;19927;-61
2023/06/22 03:33:14;;;;;;;;;;;;;;;18.99;53.44;101379.47;7354345;19;19919;-62
2023/06/22 03:35:42;;;;;;;;;;;;;;;18.99;53.50;101382.13;7350593;19;20577;-61
2023/06/22 03:38:08;;;;;;;;;;;;;;;18.98;53.38;101385.72;7350283;19;19923;-61
2023/06/22 03:40:33;;;;;;;;;;;;;;;18.98;53.61;101377.78;7352661;19;19918;-61
2023/06/22 03:42:58;;;;;;;;;;;;;;;18.97;53.47;101384.84;7353846;19;19923;-61
2023/06/22 03:45:23;;;;;;;;;;;;;;;18.94;53.41;101379.69;7357002;19;20014;-61
2023/06/22 03:47:49;;;;;;;;;;;;;;;18.92;53.30;101370.97;7352976;19;19927;-61
2023/06/22 03:50:14;;;;;;;;;;;;;;;18.90;53.44;101376.31;7354174;19;19934;-61
2023/06/22 03:52:40;;;;;;;;;;;;;;;18.89;53.74;101374.59;7351661;19;19915;-61
2023/06/22 03:55:05;;;;;;;;;;;;;;;18.85;53.55;101378.31;7355343;19;20026;-61
2023/06/22 03:57:31;;;;;;;;;;;;;;;18.81;53.77;101373.28;7349852;19;19944;-61
2023/06/22 03:59:56;;;;;;;;;;;;;;;18.78;53.36;101379.56;7352291;19;20538;-62
2023/06/22 04:02:22;;;;;;;;;;;;;;;18.73;53.49;101384.19;7353579;19;19933;-62
2023/06/22 04:04:47;;;;;;;;;;;;;;;18.68;53.39;101378.25;7353044;19;19922;-61
2023/06/22 04:07:12;;;;;;;;;;;;;;;18.63;53.48;101378.44;7350423;19;20693;-61
2023/06/22 04:09:37;;;;;;;;;;;;;;;18.57;53.61;101394.59;7353044;19;19994;-61
2023/06/22 04:12:03;;;;;;;;;;;;;;;18.52;53.77;101401.00;7346634;19;19927;-61
2023/06/22 04:14:28;;;;;;;;;;;;;;;18.46;53.76;101401.28;7351762;19;19918;-61
2023/06/22 04:16:53;;;;;;;;;;;;;;;18.40;53.59;101400.63;7354217;19;20308;-61
2023/06/22 04:19:19;;;;;;;;;;;;;;;18.37;53.60;101407.84;7350328;19;19925;-61
2023/06/22 04:21:44;;;;;;;;;;;;;;;18.32;53.49;101408.03;7350732;19;19930;-62
2023/06/22 04:24:10;;;;;;;;;;;;;;;18.29;54.03;101409.94;7355169;19;19915;-62
2023/06/22 04:26:37;;;;;;;;;;;;;;;18.24;53.72;101404.84;7352219;19;20634;-62
2023/06/22 04:29:05;;;;;;;;;;;;;;;18.22;54.08;101409.34;7354721;19;20221;-61
2023/06/22 04:31:36;;;;;;;;;;;;;;;18.19;53.71;101409.47;7351893;19;20359;-61
2023/06/22 04:34:05;;;;;;;;;;;;;;;18.17;54.15;101408.69;7351486;19;19922;-61
2023/06/22 04:36:37;;;;;;;;;;;;;;;18.14;54.18;101411.47;7353936;19;19929;-62
2023/06/22 04:39:02;;;;;;;;;;;;;;;18.13;53.87;101404.47;7348384;19;19941;-61
2023/06/22 04:41:28;;;;;;;;;;;;;;;18.13;53.89;101417.69;7349707;19;20610;-61
2023/06/22 04:43:53;;;;;;;;;;;;;;;18.11;54.31;101416.91;7343660;19;20254;-62
2023/06/22 04:46:19;;;;;;;;;;;;;;;18.11;53.97;101416.91;7348023;19;20026;-61
2023/06/22 04:48:44;;;;;;;;;;;;;;;18.08;54.25;101417.88;7354095;19;19919;-61
2023/06/22 04:51:10;;;;;;;;;;;;;;;18.08;54.20;101406.44;7352248;19;19922;-61
2023/06/22 04:53:35;;;;;;;;;;;;;;;18.05;54.20;101412.75;7350705;19;19930;-61
2023/06/22 04:56:04;;;;;;;;;;;;;;;18.03;54.21;101419.84;7351679;19;19922;-61
2023/06/22 04:58:32;;;;;;;;;;;;;;;18.02;54.51;101414.63;7350541;19;19919;-61
2023/06/22 05:00:57;;;;;;;;;;;;;;;17.99;54.12;101412.97;7350514;19;19978;-61
2023/06/22 05:03:25;;;;;;;;;;;;;;;17.96;54.46;101413.13;7352383;19;20657;-61
2023/06/22 05:05:51;;;;;;;;;;;;;;;17.95;54.20;101415.84;7346502;19;19926;-61
2023/06/22 05:08:16;;;;;;;;;;;;;;;17.93;54.69;101417.66;7354052;19;20548;-61
2023/06/22 05:10:41;;;;;;;;;;;;;;;17.92;54.47;101421.22;7350628;19;19994;-61
2023/06/22 05:13:06;;;;;;;;;;;;;;;17.89;54.50;101425.75;7351957;19;20645;-61
2023/06/22 05:15:36;;;;;;;;;;;;;;;17.88;54.79;101416.06;7348550;19;20768;-61
2023/06/22 05:18:05;;;;;;;;;;;;;;;17.88;54.87;101416.06;7353682;19;19943;-61
2023/06/22 05:20:30;;;;;;;;;;;;;;;17.88;54.82;101418.72;7351089;19;19938;-61
2023/06/22 05:22:55;;;;;;;;;;;;;;;17.87;54.88;101424.91;7351809;19;20278;-62
2023/06/22 05:25:21;;;;;;;;;;;;;;;17.87;55.00;101424.06;7349454;19;19922;-61
2023/06/22 05:27:46;;;;;;;;;;;;;;;17.87;54.59;101430.19;7351941;19;20631;-61
2023/06/22 05:30:11;;;;;;;;;;;;;;;17.88;54.72;101436.34;7349112;19;19914;-61
2023/06/22 05:32:36;;;;;;;;;;;;;;;17.88;55.06;101431.06;7347956;19;20023;-61
2023/06/22 05:35:02;;;;;;;;;;;;;;;17.89;55.12;101422.22;7352444;19;19927;-61
2023/06/22 05:37:28;;;;;;;;;;;;;;;17.89;54.96;101422.22;7349462;19;19915;-61
2023/06/22 05:39:55;;;;;;;;;;;;;;;17.91;54.71;101422.16;7349360;19;19978;-61
2023/06/22 05:42:20;;;;;;;;;;;;;;;17.92;55.14;101426.53;7349624;19;19940;-61
2023/06/22 05:44:46;;;;;;;;;;;;;;;17.60;54.71;101373.22;7352026;19;20731;-61
2023/06/22 05:47:12;;;;;;;;;;;;;;;17.94;54.82;101422.88;7348577;19;19926;-61
2023/06/22 05:49:37;;;;;;;;;;;;;;;17.97;55.27;101429.81;7351198;19;20323;-62
2023/06/22 05:52:02;;;;;;;;;;;;;;;17.98;54.86;101426.25;7348670;19;19939;-61
2023/06/22 05:54:28;;;;;;;;;;;;;;;18.00;55.11;101427.06;7348603;19;20812;-61
2023/06/22 05:56:53;;;;;;;;;;;;;;;18.02;55.32;101427.84;7346810;19;20897;-61
2023/06/22 05:59:19;;;;;;;;;;;;;;;18.04;55.32;101420.72;7346364;19;19935;-62
2023/06/22 06:01:44;;;;;;;;;;;;;;;18.05;55.23;101423.31;7349925;19;19926;-61
2023/06/22 06:04:09;;;;;;;;;;;;;;;18.08;54.93;101430.22;7349260;19;19914;-62
2023/06/22 06:06:36;;;;;;;;;;;;;;;18.10;55.06;101420.47;7347428;19;19919;-61
2023/06/22 06:09:02;;;;;;;;;;;;;;;18.12;55.11;101430.03;7355392;19;19915;-61
2023/06/22 06:11:27;;;;;;;;;;;;;;;18.15;54.98;101434.34;7354060;19;19974;-61
2023/06/22 06:13:53;;;;;;;;;;;;;;;18.17;55.29;101435.13;7351206;19;20491;-61
2023/06/22 06:16:18;;;;;;;;;;;;;;;18.19;54.98;101438.56;7354685;19;19938;-61
2023/06/22 06:18:43;;;;;;;;;;;;;;;18.22;55.44;101435.78;7354373;19;20272;-61
2023/06/22 06:21:08;;;;;;;;;;;;;;;18.24;55.07;101439.22;7356099;19;19930;-61
2023/06/22 06:23:34;;;;;;;;;;;;;;;18.27;55.47;101439.09;7352127;19;19919;-61
2023/06/22 06:25:59;;;;;;;;;;;;;;;18.30;55.30;101436.34;7353902;19;20579;-61
2023/06/22 06:28:25;;;;;;;;;;;;;;;18.33;55.35;101436.19;7353511;19;19922;-61
2023/06/22 06:30:51;;;;;;;;;;;;;;;18.36;55.06;101438.72;7353628;19;21949;-61
2023/06/22 06:33:17;;;;;;;;;;;;;;;18.39;55.17;101438.56;7355605;19;19919;-61
2023/06/22 06:35:42;;;;;;;;;;;;;;;18.42;55.29;101443.72;7353940;19;19936;-61
2023/06/22 06:38:07;;;;;;;;;;;;;;;18.47;55.15;101447.97;7356219;19;20461;-62
2023/06/22 06:40:33;;;;;;;;;;;;;;;18.51;55.13;101441.63;7349787;19;20347;-61
2023/06/22 06:42:58;;;;;;;;;;;;;;;18.56;55.45;101436.97;7348278;19;20270;-62
2023/06/22 06:45:23;;;;;;;;;;;;;;;18.60;55.48;101441.19;7354072;19;19915;-62
2023/06/22 06:47:49;;;;;;;;;;;;;;;18.65;55.22;101442.72;7354834;19;19931;-61
2023/06/22 06:50:15;;;;;;;;;;;;;;;18.70;55.35;101446.97;7351411;19;19926;-62
2023/06/22 06:52:41;;;;;;;;;;;;;;;18.74;55.35;101454.69;7351786;19;19948;-61
2023/06/22 06:55:13;;;;;;;;;;;;;;;18.78;55.53;101456.28;7351820;19;20352;-61
2023/06/22 06:57:39;;;;;;;;;;;;;;;18.52;55.24;101401.00;7337026;19;20389;-62
2023/06/22 07:00:09;;;;;;;;;;;;;;;18.88;55.46;101454.94;7338350;19;19963;-61
2023/06/22 07:02:34;;;;;;;;;;;;;;;18.92;55.53;101448.59;7331692;19;20429;-61
2023/06/22 07:05:00;;;;;;;;;;;;;;;18.99;55.39;101458.88;7325472;19;20021;-62
2023/06/22 07:07:25;;;;;;;;;;;;;;;19.05;55.34;101454.16;7356573;19;19994;-61
2023/06/22 07:09:50;;;;;;;;;;;;;;;19.10;55.54;101456.59;7353831;19;20264;-61
2023/06/22 07:12:16;;;;;;;;;;;;;;;19.17;55.58;101458.06;7354389;19;19935;-61
2023/06/22 07:14:41;;;;;;;;;;;;;;;19.22;55.63;101456.06;7352867;19;20641;-61
2023/06/22 07:17:06;;;;;;;;;;;;;;;19.31;55.49;101460.03;7352421;19;19925;-62
2023/06/22 07:19:32;;;;;;;;;;;;;;;19.39;55.72;101453.44;7353424;19;19943;-62
2023/06/22 07:21:57;;;;;;;;;;;;;;;19.49;55.93;101458.31;7348382;19;20407;-61
2023/06/22 07:24:23;;;;;;;;;;;;;;;19.60;55.67;101456.03;7355081;19;20082;-62
2023/06/22 07:26:49;;;;;;;;;;;;;;;19.70;56.10;101462.59;7349936;19;19925;-61
2023/06/22 07:29:15;;;;;;;;;;;;;;;19.83;56.02;101454.94;7352108;19;19953;-63
2023/06/22 07:31:41;;;;;;;;;;;;;;;19.96;55.70;101453.38;7354662;19;19919;-62
2023/06/22 07:34:06;;;;;;;;;;;;;;;20.09;56.04;101458.94;7353453;19;20591;-62
2023/06/22 07:36:31;;;;;;;;;;;;;;;20.21;56.01;101455.66;7356609;19;19919;-62
2023/06/22 07:38:56;;;;;;;;;;;;;;;20.33;55.79;101463.00;7355973;19;19938;-61
2023/06/22 07:41:22;;;;;;;;;;;;;;;20.44;55.48;101468.59;7353912;19;19939;-61
2023/06/22 07:43:48;;;;;;;;;;;;;;;20.54;55.84;101468.16;7358864;19;20340;-62
2023/06/22 07:46:13;;;;;;;;;;;;;;;20.62;55.85;101465.94;7337564;19;19911;-62
2023/06/22 07:48:39;;;;;;;;;;;;;;;20.70;55.46;101466.41;7351226;19;19978;-62
2023/06/22 07:51:05;;;;;;;;;;;;;;;20.79;55.17;101478.34;7354040;19;19975;-62
2023/06/22 07:53:30;;;;;;;;;;;;;;;20.85;55.18;101475.38;7355674;19;19918;-61
2023/06/22 07:55:56;;;;;;;;;;;;;;;20.89;54.68;101477.78;7354037;19;20668;-62
2023/06/22 07:58:21;;;;;;;;;;;;;;;20.93;54.56;101476.69;7354142;19;19923;-62
2023/06/22 08:00:47;;;;;;;;;;;;;;;20.95;54.54;101474.78;7351619;19;19927;-61
2023/06/22 08:03:12;;;;;;;;;;;;;;;20.98;54.18;101471.97;7354699;19;20037;-61
2023/06/22 08:05:37;;;;;;;;;;;;;;;20.99;54.45;101468.38;7346590;19;20030;-62
2023/06/22 08:08:03;;;;;;;;;;;;;;;21.02;55.06;101466.47;7353835;19;19926;-62
2023/06/22 08:10:28;;;;;;;;;;;;;;;21.04;54.89;101469.94;7354833;19;19946;-61
2023/06/22 08:12:53;;;;;;;;;;;;;;;21.05;55.10;101464.53;7351413;19;19953;-62
2023/06/22 08:15:18;;;;;;;;;;;;;;;21.07;54.75;101467.94;7353923;19;19921;-62
2023/06/22 08:17:45;;;;;;;;;;;;;;;21.09;54.60;101462.56;7356048;19;20404;-62
2023/06/22 08:20:13;;;;;;;;;;;;;;;21.10;54.90;101464.28;7354451;19;20834;-62
2023/06/22 08:22:39;;;;;;;;;;;;;;;21.12;54.85;101471.22;7353362;19;19934;-62
2023/06/22 08:25:06;;;;;;;;;;;;;;;21.15;54.81;101470.19;7354342;19;19922;-62
2023/06/22 08:27:34;;;;;;;;;;;;;;;21.19;54.14;101474.41;7356445;19;19923;-62
2023/06/22 08:29:59;;;;;;;;;;;;;;;21.20;54.45;101476.97;7355080;19;19930;-61
2023/06/22 08:32:26;;;;;;;;;;;;;;;21.22;54.61;101474.22;7352787;19;20637;-61
2023/06/22 08:34:52;;;;;;;;;;;;;;;21.24;54.38;101477.66;7354123;19;19923;-62
2023/06/22 08:37:17;;;;;;;;;;;;;;;21.26;54.24;101475.78;7353054;19;19930;-62
2023/06/22 08:39:43;;;;;;;;;;;;;;;21.28;54.22;101473.88;7353836;19;19942;-62
2023/06/22 08:42:08;;;;;;;;;;;;;;;21.30;54.27;101472.03;7353789;19;20451;-62
2023/06/22 08:44:33;;;;;;;;;;;;;;;21.34;53.71;101478.03;7351636;19;19947;-62
2023/06/22 08:46:58;;;;;;;;;;;;;;;21.35;53.97;101470.00;7354316;19;19919;-62
2023/06/22 08:49:24;;;;;;;;;;;;;;;21.38;53.45;101480.44;7354473;19;19960;-62
2023/06/22 08:51:49;;;;;;;;;;;;;;;21.40;53.45;101477.69;7351211;19;20002;-62
2023/06/22 08:54:14;;;;;;;;;;;;;;;21.19;53.64;101431.91;7352489;19;19937;-62
2023/06/22 08:56:40;;;;;;;;;;;;;;;21.42;54.11;101470.50;7351561;19;19939;-62
2023/06/22 08:59:07;;;;;;;;;;;;;;;21.44;53.72;101480.09;7350668;19;19942;-62
2023/06/22 09:01:32;;;;;;;;;;;;;;;21.48;53.80;101480.78;7351167;19;19923;-62
2023/06/22 09:03:59;;;;;;;;;;;;;;;21.51;53.82;101475.31;7349266;19;19962;-62
2023/06/22 09:06:24;;;;;;;;;;;;;;;21.56;54.08;101473.25;7355309;19;19930;-62
2023/06/22 09:08:50;;;;;;;;;;;;;;;21.63;54.08;101471.09;7351768;19;19923;-63
2023/06/22 09:11:15;;;;;;;;;;;;;;;21.67;53.67;101470.81;7351485;19;19926;-62
2023/06/22 09:13:41;;;;;;;;;;;;;;;21.72;53.30;101473.22;7352357;19;20812;-62
2023/06/22 09:16:06;;;;;;;;;;;;;;;21.75;53.72;101478.38;7351425;19;19919;-62
2023/06/22 09:18:32;;;;;;;;;;;;;;;21.80;53.55;101478.13;7352946;19;19915;-61
2023/06/22 09:20:57;;;;;;;;;;;;;;;21.84;53.10;101482.28;7354156;19;19942;-62
2023/06/22 09:23:22;;;;;;;;;;;;;;;21.87;53.36;101482.13;7352257;19;19930;-62
2023/06/22 09:25:47;;;;;;;;;;;;;;;21.92;53.57;101480.91;7353267;19;20132;-62
2023/06/22 09:28:13;;;;;;;;;;;;;;;21.96;53.34;101487.78;7353670;19;19938;-62
2023/06/22 09:30:38;;;;;;;;;;;;;;;22.02;53.48;101482.09;7349790;19;19948;-62
2023/06/22 09:33:04;;;;;;;;;;;;;;;22.08;53.19;101485.34;7353708;19;20343;-62
2023/06/22 09:35:29;;;;;;;;;;;;;;;22.18;53.07;101481.22;7353694;19;19948;-61
2023/06/22 09:37:54;;;;;;;;;;;;;;;22.33;53.28;101479.47;7351000;19;19978;-62
2023/06/22 09:40:20;;;;;;;;;;;;;;;22.52;53.17;101474.75;7353686;19;20666;-62
2023/06/22 09:42:45;;;;;;;;;;;;;;;22.78;53.24;101475.81;7359953;19;19914;-62
2023/06/22 09:45:10;;;;;;;;;;;;;;;23.06;53.41;101474.97;7360153;19;21043;-62
2023/06/22 09:47:36;;;;;;;;;;;;;;;23.32;52.94;101470.69;7357847;19;20572;-62
2023/06/22 09:50:01;;;;;;;;;;;;;;;23.55;52.83;101462.06;7360921;19;19922;-62
2023/06/22 09:52:27;;;;;;;;;;;;;;;23.84;52.87;101467.31;7358901;19;19931;-62
2023/06/22 09:54:52;;;;;;;;;;;;;;;24.13;52.90;101469.84;7357833;19;20713;-62
2023/06/22 09:57:17;;;;;;;;;;;;;;;24.40;52.49;101473.34;7357644;19;19915;-62
2023/06/22 09:59:42;;;;;;;;;;;;;;;24.71;52.95;101473.91;7358685;19;19923;-62
2023/06/22 10:02:08;;;;;;;;;;;;;;;25.03;53.21;101471.63;7358455;19;19919;-62
2023/06/22 10:04:34;;;;;;;;;;;;;;;25.33;52.15;101472.13;7361078;19;19915;-62
2023/06/22 10:06:59;;;;;;;;;;;;;;;25.63;52.49;101476.19;7356080;19;19930;-63
2023/06/22 10:09:24;;;;;;;;;;;;;;;25.94;51.64;101466.75;7358723;19;19918;-62
2023/06/22 10:11:49;;;;;;;;;;;;;;;26.25;52.00;101472.47;7353808;19;19931;-63
2023/06/22 10:14:15;;;;;;;;;;;;;;;26.57;51.82;101476.25;7357523;19;20462;-62
2023/06/22 10:16:41;;;;;;;;;;;;;;;26.90;51.68;101483.44;7356684;19;19919;-63
2023/06/22 10:19:06;;;;;;;;;;;;;;;27.19;51.41;101476.78;7358249;19;19919;-62
2023/06/22 10:21:32;;;;;;;;;;;;;;;27.50;51.26;101483.19;7353692;19;19965;-63
2023/06/22 10:23:58;;;;;;;;;;;;;;;27.82;51.20;101483.22;7356937;19;20643;-63
2023/06/22 10:26:23;;;;;;;;;;;;;;;28.17;50.33;101485.66;7357375;19;19999;-63
2023/06/22 10:28:48;;;;;;;;;;;;;;;28.52;51.10;101489.88;7356242;19;19919;-63
2023/06/22 10:31:14;;;;;;;;;;;;;;;28.85;50.68;101486.13;7357779;19;20470;-63
2023/06/22 10:33:41;;;;;;;;;;;;;;;29.21;51.38;101499.03;7353201;19;19927;-63
2023/06/22 10:36:06;;;;;;;;;;;;;;;29.53;50.35;101492.59;7355205;19;20438;-63
2023/06/22 10:38:31;;;;;;;;;;;;;;;29.85;50.39;101486.13;7356440;19;19923;-63
2023/06/22 10:40:57;;;;;;;;;;;;;;;30.09;49.71;101483.88;7355514;19;20330;-63
2023/06/22 10:43:22;;;;;;;;;;;;;;;30.33;49.26;101485.31;7358009;19;19922;-63
2023/06/22 10:45:47;;;;;;;;;;;;;;;30.58;47.73;101484.69;7357443;19;19939;-63
2023/06/22 10:48:12;;;;;;;;;;;;;;;30.86;47.68;101488.31;7356713;19;19947;-63
2023/06/22 10:50:38;;;;;;;;;;;;;;;31.16;47.72;101487.19;7354938;19;19959;-63
2023/06/22 10:53:03;;;;;;;;;;;;;;;31.50;47.96;101481.19;7353458;19;19926;-63
2023/06/22 10:55:28;;;;;;;;;;;;;;;31.81;47.00;101479.00;7357978;19;19943;-63
2023/06/22 10:57:53;;;;;;;;;;;;;;;32.12;46.59;101476.75;7355349;19;19927;-63
2023/06/22 11:00:19;;;;;;;;;;;;;;;32.47;47.00;101493.94;7355905;19;20498;-63
2023/06/22 11:02:44;;;;;;;;;;;;;;;32.76;46.67;101485.50;7355275;19;19939;-62
2023/06/22 11:05:10;;;;;;;;;;;;;;;33.06;46.92;101497.69;7357308;19;19938;-63
2023/06/22 11:07:35;;;;;;;;;;;;;;;33.37;47.24;101497.97;7355347;19;19919;-63
2023/06/22 11:10:00;;;;;;;;;;;;;;;33.61;46.16;101497.22;7351590;19;19922;-63
2023/06/22 11:12:26;;;;;;;;;;;;;;;33.74;45.47;101492.16;7355517;19;20280;-63
2023/06/22 11:14:51;;;;;;;;;;;;;;;33.79;43.12;101494.38;7352757;19;20312;-63
2023/06/22 11:17:17;;;;;;;;;;;;;;;33.92;43.64;101483.03;7354259;19;19927;-63
2023/06/22 11:19:43;;;;;;;;;;;;;;;34.12;44.19;101495.28;7353147;19;19923;-63
2023/06/22 11:22:08;;;;;;;;;;;;;;;34.38;44.20;101489.66;7353535;19;20427;-63
2023/06/22 11:24:34;;;;;;;;;;;;;;;34.67;43.69;101499.97;7355141;19;19915;-63
2023/06/22 11:26:59;;;;;;;;;;;;;;;34.96;42.70;101493.97;7357585;19;19994;-64
2023/06/22 11:29:24;;;;;;;;;;;;;;;35.24;43.05;101496.25;7356103;19;20502;-63
2023/06/22 11:31:49;;;;;;;;;;;;;;;35.45;41.45;101495.66;7356529;19;19939;-64
2023/06/22 11:34:15;;;;;;;;;;;;;;;35.70;41.36;101496.34;7355330;19;19922;-64
2023/06/22 11:36:40;;;;;;;;;;;;;;;36.02;42.02;101489.84;7354652;19;19940;-64
2023/06/22 11:39:09;;;;;;;;;;;;;;;36.31;40.55;101489.91;7349947;19;20398;-64
2023/06/22 11:41:34;;;;;;;;;;;;;;;36.64;41.23;101506.78;7355220;19;19914;-64
2023/06/22 11:43:59;;;;;;;;;;;;;;;36.95;40.92;101494.03;7352213;19;19915;-64
2023/06/22 11:46:25;;;;;;;;;;;;;;;37.19;40.93;101501.91;7352498;19;19915;-64
2023/06/22 11:48:50;;;;;;;;;;;;;;;37.33;39.01;101506.47;7348735;19;20423;-64
2023/06/22 11:51:15;;;;;;;;;;;;;;;37.45;39.70;101508.72;7352943;19;19983;-64
2023/06/22 11:53:40;;;;;;;;;;;;;;;37.60;40.38;101504.94;7351279;19;19927;-64
2023/06/22 11:56:06;;;;;;;;;;;;;;;37.76;38.10;101494.81;7356520;19;19982;-64
2023/06/22 11:58:31;;;;;;;;;;;;;;;37.91;38.34;101499.19;7355024;19;19957;-63
2023/06/22 12:00:56;;;;;;;;;;;;;;;38.11;38.60;101490.34;7354067;19;19935;-64
2023/06/22 12:03:21;;;;;;;;;;;;;;;38.31;37.51;101494.09;7350802;19;20313;-64
2023/06/22 12:05:47;;;;;;;;;;;;;;;38.40;38.37;101467.50;7353374;19;19915;-64
2023/06/22 12:08:13;;;;;;;;;;;;;;;38.88;38.89;101501.25;7353003;19;19915;-65
2023/06/22 12:10:39;;;;;;;;;;;;;;;39.04;36.20;101496.47;7354482;19;19931;-64
2023/06/22 12:13:04;;;;;;;;;;;;;;;39.18;36.07;101500.94;7353568;19;19952;-63
2023/06/22 12:15:29;;;;;;;;;;;;;;;39.39;35.99;101503.59;7353271;19;19923;-63
2023/06/22 12:17:55;;;;;;;;;;;;;;;39.64;36.40;101500.28;7354406;19;19987;-63
2023/06/22 12:20:20;;;;;;;;;;;;;;;39.81;36.11;101498.03;7350113;19;19935;-64
2023/06/22 12:22:45;;;;;;;;;;;;;;;40.00;37.39;101504.53;7351651;19;19915;-64
2023/06/22 12:25:11;;;;;;;;;;;;;;;40.13;34.76;101504.59;7350726;19;19915;-64
2023/06/22 12:27:36;;;;;;;;;;;;;;;40.22;34.88;101508.78;7353129;19;19935;-64